createdAt,value
2017-09-05T00:00:58.098Z,13.50
2017-09-05T00:03:25.693Z,13.50
2017-09-05T00:05:53.341Z,13.50
2017-09-05T00:11:40.206Z,13.40
2017-09-05T00:14:08.262Z,13.40
2017-09-05T00:16:45.805Z,13.40
2017-09-05T00:19:18.106Z,13.30
2017-09-05T00:21:51.106Z,13.30
2017-09-05T00:24:18.686Z,13.30
2017-09-05T00:26:46.273Z,13.30
2017-09-05T00:29:14.689Z,13.30
2017-09-05T00:31:42.269Z,13.30
2017-09-05T00:34:09.842Z,13.30
2017-09-05T00:36:37.505Z,13.30
2017-09-05T00:39:05.115Z,13.30
2017-09-05T00:41:33.480Z,13.30
2017-09-05T00:44:01.119Z,13.30
2017-09-05T00:46:29.476Z,13.30
2017-09-05T00:48:57.841Z,13.30
2017-09-05T00:51:26.255Z,13.30
2017-09-05T00:53:53.845Z,13.20
2017-09-05T00:56:21.444Z,13.20
2017-09-05T00:58:49.058Z,13.20
2017-09-05T01:01:16.645Z,13.20
2017-09-05T01:03:44.214Z,13.20
2017-09-05T01:06:11.979Z,13.20
2017-09-05T01:08:40.322Z,13.20
2017-09-05T01:11:07.918Z,13.20
2017-09-05T01:13:35.647Z,13.20
2017-09-05T01:16:03.246Z,13.20
2017-09-05T01:18:30.850Z,13.20
2017-09-05T01:20:58.502Z,13.20
2017-09-05T01:23:26.092Z,13.20
2017-09-05T01:25:53.674Z,13.10
2017-09-05T01:28:21.413Z,13.10
2017-09-05T01:30:49.008Z,13.10
2017-09-05T01:33:16.583Z,13.10
2017-09-05T01:35:44.320Z,13.00
2017-09-05T01:38:11.905Z,13.00
2017-09-05T01:40:39.515Z,13.00
2017-09-05T01:43:07.167Z,13.00
2017-09-05T01:45:34.756Z,13.00
2017-09-05T01:48:02.330Z,12.90
2017-09-05T01:50:30.070Z,12.90
2017-09-05T01:52:57.649Z,12.90
2017-09-05T01:55:25.231Z,12.90
2017-09-05T01:57:52.843Z,12.90
2017-09-05T02:00:21.207Z,12.80
2017-09-05T02:02:48.796Z,12.80
2017-09-05T02:05:16.436Z,12.80
2017-09-05T02:07:44.016Z,12.80
2017-09-05T02:10:11.590Z,12.70
2017-09-05T02:12:39.227Z,12.70
2017-09-05T02:15:06.810Z,12.80
2017-09-05T02:17:34.395Z,12.80
2017-09-05T02:20:02.051Z,12.80
2017-09-05T02:22:29.661Z,12.90
2017-09-05T02:24:57.252Z,12.90
2017-09-05T02:27:24.876Z,13.00
2017-09-05T02:29:52.459Z,13.00
2017-09-05T02:32:20.058Z,13.10
2017-09-05T02:34:47.696Z,13.00
2017-09-05T02:37:15.288Z,13.00
2017-09-05T02:39:42.870Z,13.00
2017-09-05T02:42:10.646Z,13.00
2017-09-05T02:44:38.245Z,13.00
2017-09-05T02:47:05.840Z,13.00
2017-09-05T02:49:34.239Z,12.90
2017-09-05T02:52:01.829Z,12.90
2017-09-05T02:54:29.415Z,12.90
2017-09-05T02:56:57.064Z,12.90
2017-09-05T02:59:24.656Z,12.90
2017-09-05T03:01:52.248Z,12.80
2017-09-05T03:04:19.997Z,12.80
2017-09-05T03:06:47.610Z,12.80
2017-09-05T03:09:15.204Z,12.80
2017-09-05T03:11:42.842Z,12.70
2017-09-05T03:14:10.443Z,12.70
2017-09-05T03:16:38.041Z,12.70
2017-09-05T03:19:05.685Z,12.80
2017-09-05T03:21:33.271Z,12.70
2017-09-05T03:24:00.858Z,12.70
2017-09-05T03:26:28.500Z,12.60
2017-09-05T03:28:56.100Z,12.70
2017-09-05T03:31:23.673Z,12.60
2017-09-05T03:33:52.386Z,12.60
2017-09-05T03:36:19.976Z,12.60
2017-09-05T03:38:47.570Z,12.60
2017-09-05T03:41:15.202Z,12.60
2017-09-05T03:43:42.792Z,12.50
2017-09-05T03:46:10.397Z,12.50
2017-09-05T03:48:38.038Z,12.60
2017-09-05T03:51:05.758Z,12.60
2017-09-05T03:53:34.129Z,12.50
2017-09-05T03:56:01.742Z,12.50
2017-09-05T03:58:29.346Z,12.50
2017-09-05T04:01:00.618Z,12.60
2017-09-05T04:03:28.356Z,12.60
2017-09-05T04:05:55.948Z,12.60
2017-09-05T04:08:23.549Z,12.70
2017-09-05T04:10:51.194Z,12.70
2017-09-05T04:13:18.793Z,12.60
2017-09-05T04:15:46.384Z,12.70
2017-09-05T04:18:14.029Z,12.60
2017-09-05T04:20:41.616Z,12.60
2017-09-05T04:23:09.199Z,12.60
2017-09-05T04:25:36.855Z,12.50
2017-09-05T04:28:04.473Z,12.50
2017-09-05T04:30:32.064Z,12.50
2017-09-05T04:32:59.720Z,12.50
2017-09-05T04:35:27.330Z,12.50
2017-09-05T04:37:54.935Z,12.50
2017-09-05T04:40:22.581Z,12.60
2017-09-05T04:42:50.155Z,12.60
2017-09-05T04:45:17.747Z,12.60
2017-09-05T04:47:46.153Z,12.60
2017-09-05T04:50:13.740Z,12.60
2017-09-05T04:52:41.324Z,12.70
2017-09-05T04:55:08.955Z,12.70
2017-09-05T04:57:36.545Z,12.80
2017-09-05T05:00:04.140Z,12.80
2017-09-05T05:02:31.772Z,12.90
2017-09-05T05:04:59.370Z,13.00
2017-09-05T05:07:26.968Z,13.10
2017-09-05T05:09:54.585Z,13.10
2017-09-05T05:12:22.178Z,13.10
2017-09-05T05:14:49.764Z,13.20
2017-09-05T05:17:17.405Z,13.30
2017-09-05T05:19:44.987Z,13.40
2017-09-05T05:22:12.612Z,13.40
2017-09-05T05:24:40.301Z,14.00
2017-09-05T05:27:07.899Z,15.50
2017-09-05T05:29:35.493Z,17.10
2017-09-05T05:32:03.408Z,18.50
2017-09-05T05:34:31.014Z,19.70
2017-09-05T05:36:58.609Z,20.70
2017-09-05T05:39:27.020Z,22.00
2017-09-05T05:41:54.626Z,21.90
2017-09-05T05:44:22.217Z,22.50
2017-09-05T05:46:49.859Z,23.00
2017-09-05T05:49:17.458Z,23.90
2017-09-05T05:51:45.041Z,24.70
2017-09-05T05:54:12.685Z,25.30
2017-09-05T05:56:40.280Z,26.20
2017-09-05T05:59:07.890Z,26.90
2017-09-05T06:01:35.535Z,27.40
2017-09-05T06:04:03.115Z,28.30
2017-09-05T06:06:30.714Z,28.80
2017-09-05T06:08:58.348Z,29.10
2017-09-05T06:11:25.932Z,29.60
2017-09-05T06:13:53.520Z,29.90
2017-09-05T06:16:21.153Z,29.40
2017-09-05T06:18:48.736Z,29.60
2017-09-05T06:21:16.316Z,29.90
2017-09-05T06:23:44.727Z,29.40
2017-09-05T06:26:12.322Z,29.40
2017-09-05T06:28:39.926Z,28.20
2017-09-05T06:31:07.749Z,26.70
2017-09-05T06:33:35.332Z,25.60
2017-09-05T06:36:02.926Z,24.60
2017-09-05T06:38:30.575Z,24.00
2017-09-05T06:40:58.151Z,23.50
2017-09-05T06:43:25.738Z,23.00
2017-09-05T06:45:53.474Z,22.60
2017-09-05T06:48:21.061Z,22.30
2017-09-05T06:50:48.705Z,22.20
2017-09-05T06:53:16.404Z,22.10
2017-09-05T06:55:44.017Z,22.00
2017-09-05T06:58:11.639Z,21.60
2017-09-05T07:00:39.290Z,21.30
2017-09-05T07:03:06.980Z,21.30
2017-09-05T07:05:34.559Z,21.40
2017-09-05T07:08:02.414Z,21.40
2017-09-05T07:10:29.982Z,21.50
2017-09-05T07:12:57.570Z,21.40
2017-09-05T07:15:25.216Z,21.40
2017-09-05T07:17:52.822Z,21.50
2017-09-05T07:20:20.409Z,21.60
2017-09-05T07:22:48.065Z,21.60
2017-09-05T07:25:15.634Z,21.70
2017-09-05T07:27:43.229Z,21.80
2017-09-05T07:30:10.881Z,21.90
2017-09-05T07:32:38.463Z,22.10
2017-09-05T07:35:06.069Z,22.30
2017-09-05T07:37:33.842Z,22.50
2017-09-05T07:40:01.414Z,22.70
2017-09-05T07:42:29.014Z,23.00
2017-09-05T07:44:56.643Z,23.00
2017-09-05T07:47:24.224Z,23.00
2017-09-05T07:49:51.806Z,23.10
2017-09-05T07:52:19.471Z,23.00
2017-09-05T07:54:47.048Z,23.00
2017-09-05T07:57:14.657Z,23.10
2017-09-05T07:59:42.291Z,23.20
2017-09-05T08:02:09.871Z,23.40
2017-09-05T08:04:37.470Z,23.60
2017-09-05T08:07:05.200Z,23.80
2017-09-05T08:09:32.797Z,24.00
2017-09-05T08:12:00.384Z,23.90
2017-09-05T08:14:28.019Z,24.10
2017-09-05T08:16:55.626Z,24.20
2017-09-05T08:19:23.223Z,24.40
2017-09-05T08:21:50.856Z,24.50
2017-09-05T08:24:18.467Z,24.30
2017-09-05T08:26:46.047Z,24.00
2017-09-05T08:29:13.796Z,23.70
2017-09-05T08:31:41.370Z,23.60
2017-09-05T08:34:08.943Z,23.60
2017-09-05T08:36:36.684Z,23.60
2017-09-05T08:39:04.258Z,23.60
2017-09-05T08:41:32.612Z,23.60
2017-09-05T08:44:00.401Z,23.60
2017-09-05T08:46:27.985Z,23.70
2017-09-05T08:48:55.564Z,24.00
2017-09-05T08:51:23.205Z,24.30
2017-09-05T08:53:50.778Z,24.50
2017-09-05T08:56:18.378Z,24.70
2017-09-05T08:58:46.006Z,24.70
2017-09-05T09:01:13.588Z,24.90
2017-09-05T09:03:41.172Z,24.90
2017-09-05T09:06:08.799Z,25.10
2017-09-05T09:08:36.393Z,25.40
2017-09-05T09:11:03.971Z,25.60
2017-09-05T09:13:31.597Z,25.80
2017-09-05T09:15:59.189Z,25.70
2017-09-05T09:18:26.763Z,25.50
2017-09-05T09:20:55.252Z,25.30
2017-09-05T09:23:22.827Z,25.20
2017-09-05T09:25:50.423Z,25.20
2017-09-05T09:28:18.164Z,25.30
2017-09-05T09:30:45.747Z,25.60
2017-09-05T09:33:13.449Z,25.80
2017-09-05T09:35:41.082Z,25.70
2017-09-05T09:38:08.665Z,25.50
2017-09-05T09:40:36.247Z,25.40
2017-09-05T09:43:03.898Z,25.40
2017-09-05T09:45:31.498Z,25.40
2017-09-05T09:47:59.085Z,25.40
2017-09-05T09:50:26.729Z,25.30
2017-09-05T09:52:54.330Z,25.40
2017-09-05T09:55:21.914Z,25.40
2017-09-05T09:57:49.535Z,25.50
2017-09-05T10:00:17.130Z,25.60
2017-09-05T10:02:44.716Z,25.70
2017-09-05T10:05:12.365Z,25.60
2017-09-05T10:07:39.973Z,25.60
2017-09-05T10:10:07.559Z,25.40
2017-09-05T10:12:35.189Z,25.20
2017-09-05T10:15:03.536Z,25.30
2017-09-05T10:17:31.116Z,25.20
2017-09-05T10:19:58.731Z,25.20
2017-09-05T10:22:26.320Z,25.10
2017-09-05T10:24:53.908Z,25.30
2017-09-05T10:27:21.705Z,25.50
2017-09-05T10:29:49.290Z,25.50
2017-09-05T10:32:16.880Z,25.60
2017-09-05T10:34:45.320Z,25.70
2017-09-05T10:37:12.898Z,25.70
2017-09-05T10:39:40.486Z,25.90
2017-09-05T10:42:09.002Z,25.90
2017-09-05T10:44:36.608Z,25.90
2017-09-05T10:47:04.217Z,25.80
2017-09-05T10:49:31.863Z,25.60
2017-09-05T10:51:59.479Z,25.60
2017-09-05T10:54:27.101Z,25.60
2017-09-05T10:56:54.865Z,25.80
2017-09-05T10:59:23.211Z,26.20
2017-09-05T11:01:50.810Z,26.10
2017-09-05T11:04:18.480Z,26.40
2017-09-05T11:06:46.058Z,26.50
2017-09-05T11:09:13.658Z,26.80
2017-09-05T11:11:42.049Z,26.80
2017-09-05T11:14:09.736Z,26.70
2017-09-05T11:16:37.316Z,26.80
2017-09-05T11:19:04.934Z,27.10
2017-09-05T11:21:32.582Z,27.10
2017-09-05T11:24:00.173Z,27.30
2017-09-05T11:26:27.812Z,27.20
2017-09-05T11:28:55.392Z,27.20
2017-09-05T11:31:22.977Z,27.20
2017-09-05T11:33:50.619Z,27.10
2017-09-05T11:36:18.196Z,27.00
2017-09-05T11:38:45.758Z,26.90
2017-09-05T11:41:14.334Z,26.70
2017-09-05T11:43:41.926Z,26.70
2017-09-05T11:46:09.513Z,26.60
2017-09-05T11:48:37.153Z,26.60
2017-09-05T11:51:04.863Z,26.80
2017-09-05T11:53:32.438Z,26.80
2017-09-05T11:56:00.092Z,26.90
2017-09-05T11:58:28.431Z,26.80
2017-09-05T12:00:55.998Z,26.70
2017-09-05T12:03:23.649Z,26.80
2017-09-05T12:05:51.235Z,26.60
2017-09-05T12:08:18.825Z,26.50
2017-09-05T12:10:46.445Z,26.50
2017-09-05T12:13:14.032Z,26.50
2017-09-05T12:15:42.398Z,26.40
2017-09-05T12:18:10.018Z,26.40
2017-09-05T12:20:37.600Z,26.30
2017-09-05T12:23:05.193Z,26.30
2017-09-05T12:25:32.824Z,26.20
2017-09-05T12:28:00.424Z,26.00
2017-09-05T12:30:28.017Z,25.90
2017-09-05T12:32:55.634Z,25.80
2017-09-05T12:35:23.202Z,25.80
2017-09-05T12:37:50.780Z,25.60
2017-09-05T12:40:19.180Z,25.50
2017-09-05T12:42:46.771Z,25.40
2017-09-05T12:45:14.363Z,25.30
2017-09-05T12:47:42.018Z,25.30
2017-09-05T12:50:09.620Z,25.20
2017-09-05T12:52:37.196Z,25.30
2017-09-05T12:55:04.799Z,25.30
2017-09-05T12:57:32.386Z,25.40
2017-09-05T12:59:59.975Z,25.50
2017-09-05T13:02:27.604Z,25.60
2017-09-05T13:04:55.195Z,25.70
2017-09-05T13:07:22.784Z,25.80
2017-09-05T13:09:50.409Z,25.90
2017-09-05T13:12:17.985Z,26.00
2017-09-05T13:14:45.565Z,26.00
2017-09-05T13:17:13.326Z,26.00
2017-09-05T13:19:40.919Z,25.80
2017-09-05T13:22:08.501Z,25.70
2017-09-05T13:24:36.125Z,25.60
2017-09-05T13:27:03.695Z,25.40
2017-09-05T13:29:31.292Z,25.40
2017-09-05T13:31:58.912Z,25.40
2017-09-05T13:34:26.493Z,25.40
2017-09-05T13:36:54.095Z,25.30
2017-09-05T13:39:21.725Z,25.30
2017-09-05T13:41:49.320Z,25.20
2017-09-05T13:44:16.921Z,25.10
2017-09-05T13:46:44.769Z,25.10
2017-09-05T13:49:12.338Z,25.00
2017-09-05T13:51:39.921Z,24.90
2017-09-05T13:54:07.540Z,24.80
2017-09-05T13:56:35.120Z,24.60
2017-09-05T13:59:02.698Z,24.50
2017-09-05T14:01:31.156Z,24.20
2017-09-05T14:03:58.746Z,24.20
2017-09-05T14:06:26.337Z,24.10
2017-09-05T14:08:53.961Z,24.10
2017-09-05T14:11:21.553Z,24.10
2017-09-05T14:13:49.122Z,24.10
2017-09-05T14:16:16.767Z,24.20
2017-09-05T14:18:44.360Z,24.10
2017-09-05T14:21:11.940Z,24.00
2017-09-05T14:23:39.883Z,24.00
2017-09-05T14:26:07.486Z,24.00
2017-09-05T14:28:35.818Z,23.80
2017-09-05T14:31:03.454Z,23.80
2017-09-05T14:33:31.055Z,23.80
2017-09-05T14:35:58.635Z,23.70
2017-09-05T14:38:26.452Z,23.70
2017-09-05T14:40:54.038Z,23.60
2017-09-05T14:43:21.630Z,23.70
2017-09-05T14:45:49.251Z,23.70
2017-09-05T14:48:18.201Z,23.70
2017-09-05T14:50:49.776Z,23.70
2017-09-05T14:53:17.448Z,23.70
2017-09-05T14:55:45.102Z,23.70
2017-09-05T14:58:12.937Z,23.80
2017-09-05T15:00:40.537Z,23.90
2017-09-05T15:03:08.113Z,23.90
2017-09-05T15:05:35.730Z,24.00
2017-09-05T15:08:03.316Z,24.00
2017-09-05T15:10:30.918Z,23.90
2017-09-05T15:12:58.627Z,23.90
2017-09-05T15:15:26.239Z,23.80
2017-09-05T15:17:53.806Z,23.70
2017-09-05T15:20:22.365Z,23.60
2017-09-05T15:22:49.955Z,23.60
2017-09-05T15:25:17.525Z,23.60
2017-09-05T15:27:45.169Z,23.50
2017-09-05T15:30:14.384Z,23.40
2017-09-05T15:32:42.078Z,23.30
2017-09-05T15:35:09.834Z,23.20
2017-09-05T15:37:37.403Z,23.20
2017-09-05T15:40:05.839Z,23.10
2017-09-05T15:42:33.505Z,23.10
2017-09-05T15:45:01.071Z,23.10
2017-09-05T15:47:28.653Z,23.00
2017-09-05T15:49:56.283Z,22.90
2017-09-05T15:52:23.865Z,22.80
2017-09-05T15:54:51.429Z,22.70
2017-09-05T15:57:19.186Z,22.60
2017-09-05T15:59:46.763Z,22.50
2017-09-05T16:02:14.344Z,22.40
2017-09-05T16:04:41.983Z,22.30
2017-09-05T16:07:09.608Z,22.20
2017-09-05T16:09:37.254Z,22.00
2017-09-05T16:12:04.894Z,22.00
2017-09-05T16:14:32.477Z,22.00
2017-09-05T16:17:00.829Z,21.90
2017-09-05T16:19:28.538Z,21.90
2017-09-05T16:21:56.131Z,21.90
2017-09-05T16:24:23.712Z,21.90
2017-09-05T16:26:51.337Z,21.80
2017-09-05T16:29:18.927Z,21.70
2017-09-05T16:31:46.499Z,21.70
2017-09-05T16:34:14.925Z,21.50
2017-09-05T16:36:42.596Z,21.50
2017-09-05T16:39:10.174Z,21.50
2017-09-05T16:41:38.561Z,21.40
2017-09-05T16:44:06.136Z,21.40
2017-09-05T16:46:33.726Z,21.40
2017-09-05T16:49:02.130Z,21.40
2017-09-05T16:51:29.708Z,21.40
2017-09-05T16:53:57.302Z,21.50
2017-09-05T16:56:25.022Z,21.50
2017-09-05T16:58:53.360Z,21.40
2017-09-05T17:01:20.948Z,21.40
2017-09-05T17:03:48.672Z,21.40
2017-09-05T17:06:17.165Z,21.40
2017-09-05T17:08:44.744Z,21.40
2017-09-05T17:11:12.378Z,21.40
2017-09-05T17:13:40.125Z,21.30
2017-09-05T17:16:07.808Z,21.30
2017-09-05T17:18:35.428Z,21.30
2017-09-05T17:21:03.010Z,21.30
2017-09-05T17:23:30.606Z,21.30
2017-09-05T17:25:58.285Z,21.30
2017-09-05T17:28:25.981Z,21.30
2017-09-05T17:30:53.572Z,21.30
2017-09-05T17:33:21.480Z,21.20
2017-09-05T17:35:49.064Z,21.20
2017-09-05T17:38:16.644Z,21.10
2017-09-05T17:40:44.277Z,21.10
2017-09-05T17:43:11.898Z,21.10
2017-09-05T17:45:39.473Z,21.00
2017-09-05T17:48:08.142Z,20.90
2017-09-05T17:50:36.084Z,20.90
2017-09-05T17:53:03.930Z,20.90
2017-09-05T17:55:31.678Z,20.90
2017-09-05T17:57:59.266Z,20.90
2017-09-05T18:00:26.880Z,20.80
2017-09-05T18:02:54.553Z,20.80
2017-09-05T18:05:22.344Z,20.70
2017-09-05T18:07:49.959Z,20.70
2017-09-05T18:10:17.780Z,20.80
2017-09-05T18:12:45.428Z,20.80
2017-09-05T18:15:13.130Z,20.70
2017-09-05T18:17:42.023Z,20.70
2017-09-05T18:20:10.802Z,20.70
2017-09-05T18:22:39.361Z,20.70
2017-09-05T18:25:06.992Z,20.70
2017-09-05T18:27:34.653Z,20.70
2017-09-05T18:30:02.313Z,20.70
2017-09-05T18:32:29.918Z,20.70
2017-09-05T18:34:57.497Z,20.70
2017-09-05T18:37:25.087Z,20.70
2017-09-05T18:39:52.968Z,20.70
2017-09-05T18:42:20.659Z,20.70
2017-09-05T18:44:48.384Z,20.60
2017-09-05T18:47:16.312Z,20.60
2017-09-05T18:49:44.062Z,20.60
2017-09-05T18:52:11.808Z,20.60
2017-09-05T18:54:39.558Z,20.60
2017-09-05T18:57:07.507Z,20.60
2017-09-05T18:59:35.264Z,20.60
2017-09-05T19:02:03.112Z,20.60
2017-09-05T19:04:30.782Z,20.60
2017-09-05T19:06:59.875Z,20.50
2017-09-05T19:09:27.512Z,20.50
2017-09-05T19:11:57.593Z,20.60
2017-09-05T19:14:26.032Z,20.50
2017-09-05T19:16:54.438Z,20.50
2017-09-05T19:19:22.168Z,20.50
2017-09-05T19:21:50.562Z,20.50
2017-09-05T19:24:19.495Z,20.60
2017-09-05T19:26:48.397Z,20.60
2017-09-05T19:29:16.137Z,20.50
2017-09-05T19:31:44.660Z,20.50
2017-09-05T19:34:12.243Z,20.50
2017-09-05T19:36:39.820Z,20.50
2017-09-05T19:39:07.461Z,20.50
2017-09-05T19:41:37.242Z,20.50
2017-09-05T19:44:04.912Z,20.50
2017-09-05T19:46:33.035Z,20.50
2017-09-05T19:49:00.612Z,20.50
2017-09-05T19:51:28.592Z,20.40
2017-09-05T19:53:56.604Z,20.40
2017-09-05T19:56:24.260Z,20.40
2017-09-05T19:58:51.975Z,20.30
2017-09-05T20:01:19.589Z,20.30
2017-09-05T20:03:47.159Z,20.30
2017-09-05T20:06:14.740Z,20.30
2017-09-05T20:08:42.816Z,20.30
2017-09-05T20:11:11.026Z,20.30
2017-09-05T20:13:39.267Z,20.30
2017-09-05T20:16:06.966Z,20.30
2017-09-05T20:18:34.538Z,20.30
2017-09-05T20:21:02.124Z,20.30
2017-09-05T20:23:29.746Z,20.30
2017-09-05T20:25:57.328Z,20.30
2017-09-05T20:28:24.902Z,20.30
2017-09-05T20:30:52.516Z,20.30
2017-09-05T20:33:20.873Z,20.20
2017-09-05T20:35:49.220Z,20.20
2017-09-05T20:38:16.831Z,20.20
2017-09-05T20:40:44.415Z,20.10
2017-09-05T20:43:11.978Z,20.10
2017-09-05T20:45:40.406Z,20.00
2017-09-05T20:48:08.005Z,20.00
2017-09-05T20:50:35.608Z,20.00
2017-09-05T20:53:03.266Z,20.00
2017-09-05T20:55:30.844Z,19.90
2017-09-05T20:57:58.406Z,19.90
2017-09-05T21:00:26.055Z,19.90
2017-09-05T21:02:53.664Z,19.90
2017-09-05T21:05:21.245Z,19.90
2017-09-05T21:07:48.875Z,19.90
2017-09-05T21:10:16.546Z,19.80
2017-09-05T21:12:44.124Z,19.80
2017-09-05T21:15:11.768Z,19.80
2017-09-05T21:17:40.104Z,19.70
2017-09-05T21:20:07.667Z,19.70
2017-09-05T21:22:35.288Z,19.70
2017-09-05T21:25:02.874Z,19.70
2017-09-05T21:27:31.213Z,19.70
2017-09-05T21:29:58.836Z,19.70
2017-09-05T21:32:26.437Z,19.70
2017-09-05T21:34:54.030Z,19.70
2017-09-05T21:37:21.696Z,19.60
2017-09-05T21:39:49.263Z,19.60
2017-09-05T21:42:16.862Z,19.60
2017-09-05T21:44:44.499Z,19.60
2017-09-05T21:47:12.090Z,19.60
2017-09-05T21:49:40.428Z,19.60
2017-09-05T21:52:08.163Z,19.60
2017-09-05T21:54:35.754Z,19.60
2017-09-05T21:57:03.346Z,19.70
2017-09-05T21:59:30.967Z,19.70
2017-09-05T22:01:58.567Z,19.70
2017-09-05T22:04:26.161Z,19.70
2017-09-05T22:06:53.784Z,19.80
2017-09-05T22:09:21.378Z,19.80
2017-09-05T22:11:48.944Z,19.70
2017-09-05T22:14:22.990Z,19.70
2017-09-05T22:16:50.555Z,19.70
2017-09-05T22:22:19.755Z,19.60
2017-09-05T22:24:53.179Z,19.60
2017-09-05T22:27:26.389Z,19.60
2017-09-05T22:29:54.008Z,19.60
2017-09-05T22:32:21.584Z,19.60
2017-09-05T22:34:49.150Z,19.60
2017-09-05T22:37:17.012Z,19.60
2017-09-05T22:39:44.618Z,19.60
2017-09-05T22:42:12.179Z,19.60
2017-09-05T22:44:39.900Z,19.60
2017-09-05T22:47:07.480Z,19.60
2017-09-05T22:49:35.811Z,19.60
2017-09-05T22:52:03.442Z,19.60
2017-09-05T22:54:31.030Z,19.60
2017-09-05T22:56:59.363Z,19.50
2017-09-05T22:59:26.974Z,19.50
2017-09-05T23:01:54.558Z,19.40
2017-09-05T23:04:22.136Z,19.30
2017-09-05T23:06:50.729Z,19.20
2017-09-05T23:09:18.312Z,19.10
2017-09-05T23:11:45.882Z,19.10
2017-09-05T23:14:13.494Z,19.00
2017-09-05T23:16:41.080Z,18.90
2017-09-05T23:19:08.685Z,18.80
2017-09-05T23:21:36.330Z,18.80
2017-09-05T23:24:03.930Z,18.70
2017-09-05T23:26:31.529Z,18.70
2017-09-05T23:28:59.318Z,18.60
2017-09-05T23:31:26.904Z,18.60
2017-09-05T23:33:54.492Z,18.50
2017-09-05T23:36:22.150Z,18.40
2017-09-05T23:38:50.031Z,18.40
2017-09-05T23:41:17.612Z,18.40
2017-09-05T23:43:45.386Z,18.30
2017-09-05T23:46:12.959Z,18.30
2017-09-05T23:48:40.546Z,18.20
2017-09-05T23:51:08.159Z,18.20
2017-09-05T23:53:35.759Z,18.20
2017-09-05T23:56:04.113Z,18.20
2017-09-05T23:58:31.753Z,18.20
